MKJPMGGT

Guest
Details From MKJP - Norman Manley Intl
To MGGT - La Aurora
Flight Number -
Tags Generated
Created
Modified
Stats Distance 817 nm / 1,513 km
Max Altitude 0 ft / 0 m
Waypoints 3
Social Downloads 3
Likes 0
Share VATSIM

Download

Looking for another format? Having issues loading an existing format? Contact us
Advertisement - Login to hide

Notes

Generated

Route

MKJP PALEN MGGT

ID Type Via Altitude Latitude Longitude Leg Dist Tot Dist Heading (true) Name
O MKJP APT - 0 ft / 0 m 17.94026˚ -76.79945˚ - 0 nm - -
PALEN FIX - 0 ft / 0 m 14.65833˚ -90.30667˚ 802 nm 802 nm 258° / 254° -
O MGGT APT - 0 ft / 0 m 14.57040˚ -90.53161˚ 14 nm 816 nm 248° / 248° -

Altitude Profile

Advertisement - Login to hide

Weather


0- 5 10 15 20 25 30 35+ Temperature / ° C

Clouds and Precipitation
Forecast for 2018-05-22 18:00 UTC. Updated 3 hours ago

Ground ~20,000 ft ~40,000 ft Winds

MKJP

Details ICAO MKJP (KIN)
Name Norman Manley Intl
Region Jamaica
Timezone Unknown (UTC+0.0)
Stats Elevation 10 ft / 3 m (AMSL)
Location 17.935665° -76.787560°
Runways 1
Magnetic Variation 7.590° W

METAR

MKJP 222000Z 13023KT 9999 FEW018 FEW020CB 31/25 Q1011

Decode

TAF

TAF MKJP 221715Z 2218/2318 13023KT 9999 FEW020 FEW022CB PROB30 TEMPO 2219/2224 SCT018 FEW020CB BECMG 2302/2304 12012KT BECMG 2314/2316 13023KT

Decode

Departure Runways

ID Width Length Bearing (true) Bearing (mag) Surface Threshold Offset Overrun Length
12 150 ft / 46 m 8,912 ft / 2,717 m 112.09° 119.68° Asphalt 0 ft / 0 m 0 ft / 0 m
30 150 ft / 46 m 8,912 ft / 2,717 m 292.10° 299.69° Asphalt 0 ft / 0 m 0 ft / 0 m

MGGT

Details ICAO MGGT (GUA)
Name La Aurora
Region Guatemala
Timezone America/Guatemala (UTC-6.0)
Stats Elevation 4,952 ft / 1,509 m (AMSL)
Location 14.583272° -90.527473°
Runways 1
Magnetic Variation 1.011° E

METAR

MGGT 222000Z 03010KT 9999 FEW022TCU FEW024CB SCT080 24/15 Q1021 A3015 CB S/SW/SWS TCU ENE/SE/SSE

Decode

TAF

TAF MGGT 221700Z 2218/2318 03006KT 9999 SCT018 SCT090 TX27/2220Z TN18/2312Z PROB40 TEMPO 2219/2310 18012KT 7000 TSRA SCT020TCU FEW025CB BECMG 2301/2303 36008KT BKN014 TEMPO 2310/2315 VRB03KT 5000 BR DZ BKN012 BECMG 2315/2317 18006KT FEW018

Decode

Destination Runways

ID Width Length Bearing (true) Bearing (mag) Surface Threshold Offset Overrun Length
01 196 ft / 60 m 9,841 ft / 3,000 m 17.29° 16.28° Asphalt 0 ft / 0 m 0 ft / 0 m
19 196 ft / 60 m 9,841 ft / 3,000 m 197.29° 196.28° Asphalt 722 ft / 220 m 0 ft / 0 m

Approach Navaids

Runway Type Ident Frequency Range Bearing (true) Bearing (mag) Slope Elevation
01 Localiser IAAI 110.10 MHz 18 nm / 33 km 17.36° 16.35° - 4,952 ft / 1,509 m (AMSL)
01 Glidescope IAAI 110.10 MHz 10 nm / 19 km 17.29° 16.28° 3.00° 4,952 ft / 1,509 m (AMSL)
01 DME IAAI 110.10 MHz 18 nm / 33 km - - - 4,952 ft / 1,509 m (AMSL)

Popular Alternatives